createdAt,value
2023-05-05T00:01:08.836Z,100931.59
2023-05-05T00:03:35.838Z,100938.84
2023-05-05T00:06:02.664Z,100955.50
2023-05-05T00:08:29.165Z,100950.88
2023-05-05T00:10:56.531Z,100962.75
2023-05-05T00:13:23.527Z,100955.97
2023-05-05T00:15:52.436Z,100951.63
2023-05-05T00:18:19.958Z,100948.97
2023-05-05T00:20:47.652Z,100950.28
2023-05-05T00:23:16.765Z,100941.84
2023-05-05T00:25:43.731Z,100944.34
2023-05-05T00:28:10.540Z,100955.06
2023-05-05T00:30:37.515Z,100948.44
2023-05-05T00:33:04.338Z,100956.69
2023-05-05T00:35:30.909Z,100958.63
2023-05-05T00:37:58.109Z,100963.38
2023-05-05T00:40:25.283Z,100957.00
2023-05-05T00:42:52.341Z,100949.03
2023-05-05T00:45:19.982Z,100956.28
2023-05-05T00:47:49.305Z,100952.50
2023-05-05T00:50:23.718Z,100956.81
2023-05-05T00:52:52.705Z,100946.88
2023-05-05T00:55:19.435Z,100952.78
2023-05-05T00:57:46.707Z,100961.50
2023-05-05T01:00:13.509Z,100951.94
2023-05-05T01:02:40.443Z,100946.63
2023-05-05T01:05:09.469Z,100960.59
2023-05-05T01:07:44.772Z,100958.41
2023-05-05T01:10:20.860Z,100953.59
2023-05-05T01:12:58.444Z,100954.66
2023-05-05T01:15:49.045Z,100956.41
2023-05-05T01:18:40.759Z,100944.59
2023-05-05T01:21:34.783Z,100950.06
2023-05-05T01:24:14.086Z,100946.28
2023-05-05T01:27:05.494Z,100944.31
2023-05-05T01:29:41.080Z,100951.72
2023-05-05T01:32:10.683Z,100962.19
2023-05-05T01:34:44.012Z,100960.34
2023-05-05T01:37:18.190Z,100962.22
2023-05-05T01:39:49.943Z,100965.78
2023-05-05T01:42:18.517Z,100961.41
2023-05-05T01:44:47.478Z,100972.41
2023-05-05T01:47:18.066Z,100962.25
2023-05-05T01:49:47.275Z,100972.47
2023-05-05T01:52:16.129Z,100981.78
2023-05-05T01:54:45.082Z,100975.44
2023-05-05T01:57:13.632Z,100977.13
2023-05-05T01:59:40.629Z,100990.03
2023-05-05T02:02:09.812Z,100990.78
2023-05-05T02:04:44.259Z,100996.75
2023-05-05T02:07:12.997Z,101000.41
2023-05-05T02:09:40.709Z,100994.34
2023-05-05T02:12:08.512Z,101000.16
2023-05-05T02:14:36.767Z,101015.38
2023-05-05T02:17:04.174Z,101010.09
2023-05-05T02:19:38.373Z,101000.41
2023-05-05T02:22:04.942Z,101007.91
2023-05-05T02:24:31.746Z,101015.38
2023-05-05T02:27:00.243Z,101003.22
2023-05-05T02:29:40.064Z,101007.22
2023-05-05T02:32:18.361Z,101015.66
2023-05-05T02:34:47.892Z,101009.72
2023-05-05T02:37:19.943Z,101003.34
2023-05-05T02:40:00.165Z,101008.31
2023-05-05T02:42:32.236Z,100996.56
2023-05-05T02:45:01.018Z,101003.63
2023-05-05T02:47:37.357Z,101005.41
2023-05-05T02:50:05.417Z,101005.53
2023-05-05T02:52:32.950Z,101013.44
2023-05-05T02:55:00.051Z,101011.34
2023-05-05T02:57:37.486Z,101008.59
2023-05-05T03:00:16.584Z,101002.25
2023-05-05T03:03:03.027Z,101012.47
2023-05-05T03:05:37.623Z,101012.22
2023-05-05T03:08:10.600Z,101016.34
2023-05-05T03:11:01.516Z,101014.44
2023-05-05T03:13:29.381Z,101012.91
2023-05-05T03:15:57.898Z,101013.16
2023-05-05T03:18:26.026Z,101013.84
2023-05-05T03:20:53.282Z,101014.00
2023-05-05T03:23:21.033Z,101022.16
2023-05-05T03:25:49.125Z,101020.78
2023-05-05T03:28:16.437Z,101016.06
2023-05-05T03:30:43.087Z,101016.19
2023-05-05T03:33:12.738Z,101024.91
2023-05-05T03:35:39.154Z,101019.66
2023-05-05T03:38:05.590Z,101026.81
2023-05-05T03:40:43.043Z,101027.09
2023-05-05T03:43:10.910Z,101019.63
2023-05-05T03:45:37.706Z,101028.63
2023-05-05T03:48:04.512Z,101036.78
2023-05-05T03:50:31.013Z,101041.34
2023-05-05T03:52:57.433Z,101029.31
2023-05-05T03:55:24.498Z,101031.81
2023-05-05T03:57:50.921Z,101039.94
2023-05-05T04:00:17.669Z,101036.63
2023-05-05T04:02:44.191Z,101054.16
2023-05-05T04:05:10.784Z,101057.63
2023-05-05T04:07:37.254Z,101055.00
2023-05-05T04:10:03.839Z,101049.88
2023-05-05T04:12:30.324Z,101064.81
2023-05-05T04:14:56.814Z,101057.06
2023-05-05T04:17:23.272Z,101060.78
2023-05-05T04:19:49.786Z,101068.25
2023-05-05T04:22:16.403Z,101071.13
2023-05-05T04:24:42.862Z,101070.44
2023-05-05T04:27:09.339Z,101068.66
2023-05-05T04:29:36.064Z,101060.19
2023-05-05T04:32:02.510Z,101067.94
2023-05-05T04:34:29.006Z,101074.88
2023-05-05T04:36:55.473Z,101072.09
2023-05-05T04:39:21.906Z,101065.06
2023-05-05T04:41:48.380Z,101074.88
2023-05-05T04:44:15.655Z,101074.47
2023-05-05T04:46:42.134Z,101073.50
2023-05-05T04:49:09.186Z,101077.66
2023-05-05T04:51:35.848Z,101072.94
2023-05-05T04:54:02.316Z,101081.53
2023-05-05T04:56:31.364Z,101084.59
2023-05-05T04:58:57.793Z,101079.78
2023-05-05T05:01:24.237Z,101089.88
2023-05-05T05:03:51.087Z,101091.25
2023-05-05T05:06:17.538Z,101093.25
2023-05-05T05:08:43.989Z,101094.50
2023-05-05T05:11:10.547Z,101089.53
2023-05-05T05:13:36.990Z,101096.59
2023-05-05T05:16:03.703Z,101093.31
2023-05-05T05:18:30.184Z,101088.88
2023-05-05T05:20:56.569Z,101097.47
2023-05-05T05:23:23.025Z,101105.22
2023-05-05T05:25:49.588Z,101093.59
2023-05-05T05:28:16.090Z,101095.94
2023-05-05T05:30:42.913Z,101104.22
2023-05-05T05:33:09.530Z,101101.28
2023-05-05T05:35:36.125Z,101103.03
2023-05-05T05:38:02.570Z,101105.06
2023-05-05T05:40:29.070Z,101108.75
2023-05-05T05:42:56.117Z,101102.97
2023-05-05T05:45:22.845Z,101101.56
2023-05-05T05:47:49.457Z,101115.84
2023-05-05T05:50:15.914Z,101116.69
2023-05-05T05:52:42.310Z,101118.72
2023-05-05T05:55:09.303Z,101134.69
2023-05-05T05:57:35.966Z,101118.72
2023-05-05T06:00:02.666Z,101123.16
2023-05-05T06:02:29.356Z,101125.00
2023-05-05T06:04:56.056Z,101126.69
2023-05-05T06:07:22.536Z,101124.50
2023-05-05T06:09:49.009Z,101125.06
2023-05-05T06:12:15.556Z,101124.72
2023-05-05T06:14:42.068Z,101106.50
2023-05-05T06:17:08.479Z,101106.66
2023-05-05T06:19:35.147Z,101116.06
2023-05-05T06:22:01.573Z,101121.13
2023-05-05T06:24:28.005Z,101108.22
2023-05-05T06:26:54.449Z,101113.38
2023-05-05T06:29:22.246Z,101118.66
2023-05-05T06:31:49.050Z,101111.03
2023-05-05T06:34:15.806Z,101120.97
2023-05-05T06:36:42.214Z,101133.22
2023-05-05T06:39:08.699Z,101131.88
2023-05-05T06:41:35.478Z,101124.56
2023-05-05T06:44:02.104Z,101135.81
2023-05-05T06:46:29.024Z,101140.34
2023-05-05T06:48:55.437Z,101147.13
2023-05-05T06:51:22.743Z,101151.81
2023-05-05T06:53:49.477Z,101164.94
2023-05-05T06:56:15.939Z,101157.38
2023-05-05T06:58:42.696Z,101151.09
2023-05-05T07:01:09.605Z,101159.69
2023-05-05T07:03:36.171Z,101157.50
2023-05-05T07:06:03.550Z,101147.72
2023-05-05T07:08:30.061Z,101153.41
2023-05-05T07:10:56.593Z,101149.91
2023-05-05T07:13:23.059Z,101154.75
2023-05-05T07:15:49.645Z,101154.38
2023-05-05T07:18:16.670Z,101153.03
2023-05-05T07:20:46.530Z,101158.78
2023-05-05T07:23:12.991Z,101166.50
2023-05-05T07:25:39.487Z,101164.56
2023-05-05T07:28:06.196Z,101166.50
2023-05-05T07:30:32.593Z,101160.31
2023-05-05T07:32:59.144Z,101169.50
2023-05-05T07:35:26.312Z,101164.28
2023-05-05T07:37:52.764Z,101176.44
2023-05-05T07:40:19.237Z,101171.44
2023-05-05T07:42:47.376Z,101173.28
2023-05-05T07:45:13.843Z,101179.06
2023-05-05T07:47:40.768Z,101172.09
2023-05-05T07:50:07.908Z,101174.13
2023-05-05T07:52:45.118Z,101170.38
2023-05-05T07:55:16.533Z,101171.81
2023-05-05T07:57:42.977Z,101184.41
2023-05-05T08:00:10.772Z,101179.53
2023-05-05T08:02:37.525Z,101169.44
2023-05-05T08:05:04.553Z,101170.28
2023-05-05T08:07:31.053Z,101171.56
2023-05-05T08:09:57.706Z,101177.34
2023-05-05T08:12:24.902Z,101170.78
2023-05-05T08:14:51.453Z,101170.47
2023-05-05T08:17:17.920Z,101175.91
2023-05-05T08:19:44.301Z,101173.00
2023-05-05T08:22:10.890Z,101176.22
2023-05-05T08:24:37.388Z,101171.34
2023-05-05T08:27:04.092Z,101163.31
2023-05-05T08:29:30.463Z,101155.84
2023-05-05T08:31:57.169Z,101158.06
2023-05-05T08:34:23.780Z,101156.91
2023-05-05T08:36:50.917Z,101150.72
2023-05-05T08:39:17.367Z,101153.47
2023-05-05T08:41:44.107Z,101159.84
2023-05-05T08:44:10.723Z,101159.97
2023-05-05T08:46:39.156Z,101163.47
2023-05-05T08:49:11.155Z,101167.50
2023-05-05T08:51:44.231Z,101162.53
2023-05-05T08:54:17.684Z,101163.84
2023-05-05T08:56:46.960Z,101160.41
2023-05-05T08:59:14.627Z,101164.66
2023-05-05T09:01:42.916Z,101167.28
2023-05-05T09:04:09.826Z,101162.44
2023-05-05T09:09:03.776Z,101166.50
2023-05-05T09:11:30.932Z,101171.00
2023-05-05T09:13:57.342Z,101172.66
2023-05-05T09:16:23.853Z,101174.78
2023-05-05T09:18:50.502Z,101187.13
2023-05-05T09:21:25.959Z,101168.06
2023-05-05T09:24:10.272Z,101178.31
2023-05-05T09:26:43.358Z,101174.22
2023-05-05T09:29:10.318Z,101173.91
2023-05-05T09:31:37.562Z,101160.84
2023-05-05T09:34:14.883Z,101170.84
2023-05-05T09:36:48.787Z,101167.00
2023-05-05T09:39:20.154Z,101165.75
2023-05-05T09:41:47.057Z,101166.53
2023-05-05T09:44:17.029Z,101173.94
2023-05-05T09:46:53.148Z,101172.69
2023-05-05T09:49:25.202Z,101159.94
2023-05-05T09:51:52.902Z,101174.25
2023-05-05T09:54:27.371Z,101173.91
2023-05-05T09:56:54.941Z,101164.63
2023-05-05T09:59:22.197Z,101158.44
2023-05-05T10:01:50.053Z,101154.19
2023-05-05T10:04:28.244Z,101143.38
2023-05-05T10:06:56.700Z,101145.41
2023-05-05T10:09:26.960Z,101136.09
2023-05-05T10:11:54.210Z,101125.44
2023-05-05T10:14:24.127Z,101118.50
2023-05-05T10:16:51.702Z,101119.94
2023-05-05T10:19:20.026Z,101119.41
2023-05-05T10:21:51.519Z,101111.16
2023-05-05T10:24:39.355Z,101123.47
2023-05-05T10:27:23.903Z,101124.41
2023-05-05T10:30:07.903Z,101125.72
2023-05-05T10:35:17.023Z,101126.34
2023-05-05T10:37:44.675Z,101133.66
2023-05-05T10:40:13.316Z,101142.44
2023-05-05T10:42:40.205Z,101139.22
2023-05-05T10:45:07.725Z,101142.59
2023-05-05T10:47:36.071Z,101133.31
2023-05-05T10:50:19.345Z,101146.66
2023-05-05T10:53:13.816Z,101144.00
2023-05-05T10:55:59.156Z,101140.88
2023-05-05T10:58:55.406Z,101126.19
2023-05-05T11:01:33.568Z,101138.00
2023-05-05T11:04:19.484Z,101138.69
2023-05-05T11:07:14.575Z,101126.66
2023-05-05T11:09:57.502Z,101129.13
2023-05-05T11:12:24.337Z,101122.59
2023-05-05T11:15:28.107Z,101123.72
2023-05-05T11:17:58.573Z,101117.34
2023-05-05T11:20:37.563Z,101122.34
2023-05-05T11:23:04.127Z,101115.19
2023-05-05T11:25:41.074Z,101117.03
2023-05-05T11:28:16.402Z,101115.56
2023-05-05T11:30:54.920Z,101123.94
2023-05-05T11:33:36.840Z,101123.72
2023-05-05T11:36:08.117Z,101131.59
2023-05-05T11:38:43.988Z,101136.91
2023-05-05T11:41:13.981Z,101135.63
2023-05-05T11:43:41.736Z,101138.56
2023-05-05T11:46:12.888Z,101146.00
2023-05-05T11:48:54.681Z,101132.47
2023-05-05T11:51:22.148Z,101129.50
2023-05-05T11:53:50.847Z,101127.34
2023-05-05T11:56:19.273Z,101117.88
2023-05-05T11:58:49.726Z,101110.72
2023-05-05T12:01:16.682Z,101110.31
2023-05-05T12:03:45.453Z,101118.06
2023-05-05T12:06:12.990Z,101125.81
2023-05-05T12:08:43.710Z,101121.72
2023-05-05T12:11:11.131Z,101123.13
2023-05-05T12:13:37.821Z,101114.75
2023-05-05T12:16:12.920Z,101117.09
2023-05-05T12:18:39.899Z,101118.78
2023-05-05T12:21:19.822Z,101122.41
2023-05-05T12:23:46.520Z,101113.47
2023-05-05T12:26:30.007Z,101115.66
2023-05-05T12:29:00.362Z,101108.81
2023-05-05T12:31:41.117Z,101108.44
2023-05-05T12:34:11.605Z,101109.31
2023-05-05T12:36:39.310Z,101106.72
2023-05-05T12:39:05.824Z,101112.78
2023-05-05T12:41:32.965Z,101111.25
2023-05-05T12:44:01.156Z,101116.50
2023-05-05T12:46:29.735Z,101111.88
2023-05-05T12:49:14.976Z,101124.22
2023-05-05T12:51:56.406Z,101119.44
2023-05-05T12:54:25.055Z,101119.19
2023-05-05T12:56:51.565Z,101114.19
2023-05-05T12:59:20.953Z,101124.09
2023-05-05T13:01:52.475Z,101112.25
2023-05-05T13:04:20.940Z,101118.53
2023-05-05T13:06:49.852Z,101117.13
2023-05-05T13:09:33.935Z,101107.19
2023-05-05T13:12:02.857Z,101098.59
2023-05-05T13:14:30.806Z,101103.91
2023-05-05T13:16:57.423Z,101103.72
2023-05-05T13:19:25.024Z,101094.41
2023-05-05T13:21:55.577Z,101096.63
2023-05-05T13:24:31.602Z,101096.13
2023-05-05T13:27:05.555Z,101094.50
2023-05-05T13:29:33.001Z,101090.81
2023-05-05T13:31:59.783Z,101093.06
2023-05-05T13:34:26.272Z,101082.00
2023-05-05T13:36:52.694Z,101079.50
2023-05-05T13:39:19.159Z,101074.78
2023-05-05T13:41:45.687Z,101077.88
2023-05-05T13:44:13.705Z,101074.56
2023-05-05T13:46:45.092Z,101071.22
2023-05-05T13:49:11.654Z,101075.13
2023-05-05T13:51:38.912Z,101067.44
2023-05-05T13:54:06.465Z,101054.41
2023-05-05T13:56:33.933Z,101050.75
2023-05-05T13:59:00.921Z,101049.59
2023-05-05T14:01:27.540Z,101052.19
2023-05-05T14:03:57.133Z,101049.84
2023-05-05T14:06:23.955Z,101058.50
2023-05-05T14:08:50.415Z,101051.28
2023-05-05T14:11:18.140Z,101048.63
2023-05-05T14:13:46.578Z,101036.44
2023-05-05T14:16:13.556Z,101054.00
2023-05-05T14:18:40.445Z,101046.75
2023-05-05T14:21:06.967Z,101051.72
2023-05-05T14:23:33.411Z,101058.59
2023-05-05T14:26:00.736Z,101060.09
2023-05-05T14:28:27.163Z,101064.31
2023-05-05T14:30:53.739Z,101077.56
2023-05-05T14:33:20.218Z,101087.22
2023-05-05T14:35:46.667Z,101081.91
2023-05-05T14:38:13.165Z,101084.25
2023-05-05T14:40:39.584Z,101088.53
2023-05-05T14:43:06.353Z,101092.19
2023-05-05T14:45:33.324Z,101089.19
2023-05-05T14:47:59.775Z,101101.53
2023-05-05T14:50:26.298Z,101097.75
2023-05-05T14:52:52.740Z,101102.81
2023-05-05T14:55:19.356Z,101113.03
2023-05-05T14:57:45.769Z,101117.81
2023-05-05T15:00:12.807Z,101112.34
2023-05-05T15:02:39.269Z,101116.13
2023-05-05T15:05:06.380Z,101119.13
2023-05-05T15:07:32.882Z,101114.28
2023-05-05T15:09:59.322Z,101119.25
2023-05-05T15:12:26.015Z,101118.09
2023-05-05T15:14:52.527Z,101120.19
2023-05-05T15:17:18.935Z,101110.41
2023-05-05T15:19:45.365Z,101115.69
2023-05-05T15:22:11.756Z,101114.25
2023-05-05T15:24:38.296Z,101101.66
2023-05-05T15:27:04.817Z,101104.63
2023-05-05T15:29:31.592Z,101111.41
2023-05-05T15:31:58.157Z,101094.59
2023-05-05T15:34:24.761Z,101097.94
2023-05-05T15:36:51.475Z,101094.19
2023-05-05T15:39:18.065Z,101089.34
2023-05-05T15:41:44.568Z,101092.22
2023-05-05T15:44:12.366Z,101091.63
2023-05-05T15:46:39.719Z,101091.19
2023-05-05T15:49:06.283Z,101102.28
2023-05-05T15:51:32.700Z,101106.63
2023-05-05T15:54:00.663Z,101100.88
2023-05-05T15:56:27.521Z,101108.34
2023-05-05T15:58:54.275Z,101107.38
2023-05-05T16:01:21.077Z,101105.72
2023-05-05T16:03:47.551Z,101100.59
2023-05-05T16:06:14.089Z,101099.63
2023-05-05T16:08:40.766Z,101103.06
2023-05-05T16:11:07.245Z,101101.59
2023-05-05T16:13:33.808Z,101098.22
2023-05-05T16:16:00.302Z,101093.03
2023-05-05T16:18:26.771Z,101094.13
2023-05-05T16:20:53.150Z,101097.59
2023-05-05T16:23:19.612Z,101096.56
2023-05-05T16:25:46.120Z,101106.44
2023-05-05T16:28:12.529Z,101089.53
2023-05-05T16:30:39.886Z,101099.44
2023-05-05T16:33:06.853Z,101100.38
2023-05-05T16:35:33.475Z,101095.34
2023-05-05T16:37:59.886Z,101097.00
2023-05-05T16:40:26.319Z,101095.13
2023-05-05T16:42:52.791Z,101101.66
2023-05-05T16:45:19.173Z,101090.94
2023-05-05T16:47:45.622Z,101099.00
2023-05-05T16:50:12.166Z,101098.13
2023-05-05T16:52:38.564Z,101094.44
2023-05-05T16:55:05.455Z,101097.66
2023-05-05T16:57:32.035Z,101105.50
2023-05-05T16:59:58.524Z,101093.94
2023-05-05T17:02:25.059Z,101103.63
2023-05-05T17:04:51.596Z,101106.59
2023-05-05T17:07:18.080Z,101098.81
2023-05-05T17:09:44.691Z,101113.50
2023-05-05T17:12:11.210Z,101112.84
2023-05-05T17:14:37.676Z,101105.97
2023-05-05T17:17:04.106Z,101113.34
2023-05-05T17:19:30.620Z,101146.88
2023-05-05T17:21:57.240Z,101146.75
2023-05-05T17:24:24.109Z,101145.69
2023-05-05T17:26:50.602Z,101162.63
2023-05-05T17:29:21.569Z,101170.56
2023-05-05T17:31:48.192Z,101167.22
2023-05-05T17:34:14.660Z,101163.22
2023-05-05T17:36:41.129Z,101160.59
2023-05-05T17:39:07.728Z,101151.28
2023-05-05T17:41:34.202Z,101132.75
2023-05-05T17:44:00.736Z,101141.63
2023-05-05T17:46:27.865Z,101135.00
2023-05-05T17:48:54.545Z,101134.19
2023-05-05T17:51:21.038Z,101132.13
2023-05-05T17:53:47.529Z,101138.50
2023-05-05T17:56:13.978Z,101144.88
2023-05-05T17:58:40.466Z,101114.31
2023-05-05T18:01:07.140Z,101142.53
2023-05-05T18:03:33.783Z,101153.81
2023-05-05T18:06:01.200Z,101153.69
2023-05-05T18:08:27.674Z,101140.00
2023-05-05T18:10:54.342Z,101151.06
2023-05-05T18:13:21.414Z,101157.03
2023-05-05T18:15:47.978Z,101149.94
2023-05-05T18:18:14.639Z,101154.41
2023-05-05T18:20:41.140Z,101157.31
2023-05-05T18:23:13.378Z,101161.13
2023-05-05T18:25:39.911Z,101155.19
2023-05-05T18:28:06.398Z,101159.19
2023-05-05T18:30:33.432Z,101149.50
2023-05-05T18:32:59.883Z,101160.56
2023-05-05T18:35:26.310Z,101158.09
2023-05-05T18:37:54.475Z,101156.41
2023-05-05T18:40:22.054Z,101156.41
2023-05-05T18:42:48.596Z,101148.13
2023-05-05T18:45:15.346Z,101153.34
2023-05-05T18:47:41.827Z,101153.75
2023-05-05T18:50:09.862Z,101148.78
2023-05-05T18:52:36.357Z,101156.28
2023-05-05T18:55:02.877Z,101149.03
2023-05-05T18:57:29.680Z,101157.50
2023-05-05T18:59:56.136Z,101159.16
2023-05-05T19:02:22.645Z,101161.91
2023-05-05T19:04:49.131Z,101169.66
2023-05-05T19:07:27.479Z,101155.09
2023-05-05T19:09:54.347Z,101169.50
2023-05-05T19:12:20.796Z,101171.84
2023-05-05T19:14:47.304Z,101165.50
2023-05-05T19:17:13.771Z,101172.69
2023-05-05T19:19:40.275Z,101169.22
2023-05-05T19:22:06.718Z,101175.19
2023-05-05T19:24:35.406Z,101172.56
2023-05-05T19:27:02.852Z,101178.53
2023-05-05T19:29:31.319Z,101168.25
2023-05-05T19:31:57.857Z,101179.63
2023-05-05T19:34:24.390Z,101180.84
2023-05-05T19:36:50.898Z,101187.47
2023-05-05T19:39:17.427Z,101173.72
2023-05-05T19:41:43.909Z,101179.56
2023-05-05T19:44:10.699Z,101182.00
2023-05-05T19:46:37.373Z,101180.88
2023-05-05T19:49:03.838Z,101180.56
2023-05-05T19:51:31.563Z,101183.13
2023-05-05T19:53:59.418Z,101171.50
2023-05-05T19:56:26.024Z,101175.47
2023-05-05T19:59:00.656Z,101180.31
2023-05-05T20:01:28.355Z,101185.94
2023-05-05T20:03:56.477Z,101167.50
2023-05-05T20:06:23.380Z,101175.81
2023-05-05T20:08:49.881Z,101185.47
2023-05-05T20:11:17.464Z,101183.94
2023-05-05T20:13:44.216Z,101179.53
2023-05-05T20:16:11.678Z,101185.75
2023-05-05T20:18:38.731Z,101194.69
2023-05-05T20:21:05.228Z,101192.06
2023-05-05T20:23:32.018Z,101182.06
2023-05-05T20:25:58.458Z,101186.09
2023-05-05T20:28:25.011Z,101184.56
2023-05-05T20:30:51.529Z,101198.88
2023-05-05T20:33:18.023Z,101199.41
2023-05-05T20:35:44.500Z,101192.63
2023-05-05T20:38:11.212Z,101198.63
2023-05-05T20:40:37.735Z,101189.59
2023-05-05T20:43:04.199Z,101202.44
2023-05-05T20:45:31.766Z,101193.75
2023-05-05T20:47:58.670Z,101197.78
2023-05-05T20:50:25.704Z,101173.38
2023-05-05T20:52:52.194Z,101202.06
2023-05-05T20:55:18.811Z,101208.28
2023-05-05T20:57:45.957Z,101190.78
2023-05-05T21:00:12.826Z,101201.16
2023-05-05T21:02:39.396Z,101199.63
2023-05-05T21:05:06.465Z,101194.38
2023-05-05T21:07:36.186Z,101189.84
2023-05-05T21:10:04.482Z,101187.81
2023-05-05T21:12:31.102Z,101196.63
2023-05-05T21:14:58.890Z,101186.13
2023-05-05T21:17:26.740Z,101196.22
2023-05-05T21:19:53.775Z,101198.84
2023-05-05T21:22:20.943Z,101195.31
2023-05-05T21:24:47.453Z,101188.63
2023-05-05T21:27:14.163Z,101188.31
2023-05-05T21:29:40.848Z,101196.78
2023-05-05T21:32:08.771Z,101198.84
2023-05-05T21:34:36.265Z,101203.38
2023-05-05T21:37:03.106Z,101199.06
2023-05-05T21:39:32.194Z,101185.63
2023-05-05T21:41:59.141Z,101193.50
2023-05-05T21:44:26.397Z,101196.47
2023-05-05T21:46:53.345Z,101198.13
2023-05-05T21:49:19.938Z,101200.63
2023-05-05T21:51:46.485Z,101197.88
2023-05-05T21:54:13.031Z,101185.72
2023-05-05T21:56:39.563Z,101192.66
2023-05-05T21:59:06.061Z,101187.97
2023-05-05T22:01:32.757Z,101187.03
2023-05-05T22:03:59.303Z,101183.28
2023-05-05T22:06:25.870Z,101184.50
2023-05-05T22:08:52.378Z,101184.88
2023-05-05T22:11:18.996Z,101180.22
2023-05-05T22:13:46.603Z,101177.59
2023-05-05T22:16:17.406Z,101180.34
2023-05-05T22:18:44.754Z,101171.78
2023-05-05T22:21:11.604Z,101164.28
2023-05-05T22:23:39.114Z,101170.81
2023-05-05T22:26:05.577Z,101189.44
2023-05-05T22:28:32.047Z,101171.19
2023-05-05T22:30:58.499Z,101173.44
2023-05-05T22:33:24.978Z,101173.06
2023-05-05T22:35:51.994Z,101172.78
2023-05-05T22:38:18.559Z,101179.72
2023-05-05T22:40:45.711Z,101179.47
2023-05-05T22:43:12.216Z,101174.94
2023-05-05T22:45:38.897Z,101173.97
2023-05-05T22:48:05.719Z,101176.47
2023-05-05T22:50:32.267Z,101167.16
2023-05-05T22:52:58.740Z,101179.09
2023-05-05T22:55:25.307Z,101178.63
2023-05-05T22:57:52.625Z,101178.88
2023-05-05T23:00:19.314Z,101169.63
2023-05-05T23:02:45.838Z,101169.16
2023-05-05T23:05:12.554Z,101167.72
2023-05-05T23:07:39.252Z,101169.63
2023-05-05T23:10:06.276Z,101165.63
2023-05-05T23:12:32.800Z,101164.44
2023-05-05T23:14:59.272Z,101179.47
2023-05-05T23:17:25.737Z,101181.38
2023-05-05T23:19:52.172Z,101186.88
2023-05-05T23:22:18.564Z,101173.06
2023-05-05T23:24:45.037Z,101189.75
2023-05-05T23:27:12.445Z,101181.19
2023-05-05T23:29:39.056Z,101186.66
2023-05-05T23:32:06.337Z,101170.59
2023-05-05T23:34:32.853Z,101165.72
2023-05-05T23:37:00.463Z,101177.84
2023-05-05T23:39:26.903Z,101174.53
2023-05-05T23:41:53.338Z,101162.84
2023-05-05T23:44:19.764Z,101175.72
2023-05-05T23:46:46.481Z,101162.16
2023-05-05T23:49:12.950Z,101170.72
2023-05-05T23:51:39.364Z,101159.66
2023-05-05T23:54:05.916Z,101160.13
2023-05-05T23:56:32.336Z,101153.84
2023-05-05T23:58:58.761Z,101160.84
